sensor_id;sensor_type;location;lat;lon;timestamp;pressure;altitude;pressure_sealevel;temperature;humidity
69836;BME280;57132;51.972;4.450;2023-03-04T00:00:36;102697.25;;;4.84;100.00
69836;BME280;57132;51.972;4.450;2023-03-04T00:03:07;102712.25;;;4.83;100.00
69836;BME280;57132;51.972;4.450;2023-03-04T00:05:35;102701.66;;;4.83;100.00
69836;BME280;57132;51.972;4.450;2023-03-04T00:08:00;102706.91;;;4.85;100.00
69836;BME280;57132;51.972;4.450;2023-03-04T00:10:26;102709.59;;;4.82;100.00
69836;BME280;57132;51.972;4.450;2023-03-04T00:12:51;102712.25;;;4.82;100.00
69836;BME280;57132;51.972;4.450;2023-03-04T00:15:16;102709.66;;;4.79;100.00
69836;BME280;57132;51.972;4.450;2023-03-04T00:17:42;102707.91;;;4.78;100.00
69836;BME280;57132;51.972;4.450;2023-03-04T00:20:08;102706.13;;;4.80;100.00
69836;BME280;57132;51.972;4.450;2023-03-04T00:22:33;102707.91;;;4.78;100.00
69836;BME280;57132;51.972;4.450;2023-03-04T00:24:58;102716.72;;;4.80;100.00
69836;BME280;57132;51.972;4.450;2023-03-04T00:27:24;102713.16;;;4.81;100.00
69836;BME280;57132;51.972;4.450;2023-03-04T00:29:49;102707.00;;;4.80;100.00
69836;BME280;57132;51.972;4.450;2023-03-04T00:32:14;102707.88;;;4.81;100.00
69836;BME280;57132;51.972;4.450;2023-03-04T00:34:42;102712.28;;;4.79;100.00
69836;BME280;57132;51.972;4.450;2023-03-04T00:37:07;102710.59;;;4.76;100.00
69836;BME280;57132;51.972;4.450;2023-03-04T00:39:33;102707.09;;;4.74;100.00
69836;BME280;57132;51.972;4.450;2023-03-04T00:41:58;102707.09;;;4.74;100.00
69836;BME280;57132;51.972;4.450;2023-03-04T00:44:23;102709.78;;;4.73;100.00
69836;BME280;57132;51.972;4.450;2023-03-04T00:46:49;102705.34;;;4.73;100.00
69836;BME280;57132;51.972;4.450;2023-03-04T00:49:14;102701.84;;;4.73;100.00
69836;BME280;57132;51.972;4.450;2023-03-04T00:51:39;102706.25;;;4.71;100.00
69836;BME280;57132;51.972;4.450;2023-03-04T00:54:05;102698.31;;;4.71;100.00
69836;BME280;57132;51.972;4.450;2023-03-04T00:56:30;102704.53;;;4.69;100.00
69836;BME280;57132;51.972;4.450;2023-03-04T00:58:55;102698.31;;;4.72;100.00
69836;BME280;57132;51.972;4.450;2023-03-04T01:01:21;102700.97;;;4.71;100.00
69836;BME280;57132;51.972;4.450;2023-03-04T01:03:46;102696.59;;;4.69;100.00
69836;BME280;57132;51.972;4.450;2023-03-04T01:06:12;102701.84;;;4.73;100.00
69836;BME280;57132;51.972;4.450;2023-03-04T01:08:38;102701.84;;;4.73;100.00
69836;BME280;57132;51.972;4.450;2023-03-04T01:11:04;102697.38;;;4.76;100.00
69836;BME280;57132;51.972;4.450;2023-03-04T01:13:29;102707.94;;;4.76;100.00
69836;BME280;57132;51.972;4.450;2023-03-04T01:15:55;102710.56;;;4.79;100.00
69836;BME280;57132;51.972;4.450;2023-03-04T01:18:21;102711.41;;;4.80;100.00
69836;BME280;57132;51.972;4.450;2023-03-04T01:20:47;102703.47;;;4.80;100.00
69836;BME280;57132;51.972;4.450;2023-03-04T01:23:12;102700.84;;;4.78;100.00
69836;BME280;57132;51.972;4.450;2023-03-04T01:25:38;102692.03;;;4.78;100.00
69836;BME280;57132;51.972;4.450;2023-03-04T01:28:03;102691.13;;;4.80;100.00
69836;BME280;57132;51.972;4.450;2023-03-04T01:30:28;102687.63;;;4.80;100.00
69836;BME280;57132;51.972;4.450;2023-03-04T01:32:54;102686.75;;;4.78;100.00
69836;BME280;57132;51.972;4.450;2023-03-04T01:35:19;102679.72;;;4.77;100.00
69836;BME280;57132;51.972;4.450;2023-03-04T01:37:44;102679.75;;;4.74;100.00
69836;BME280;57132;51.972;4.450;2023-03-04T01:40:11;102678.03;;;4.73;100.00
69836;BME280;57132;51.972;4.450;2023-03-04T01:42:37;102678.06;;;4.69;100.00
69836;BME280;57132;51.972;4.450;2023-03-04T01:45:04;102671.03;;;4.68;100.00
69836;BME280;57132;51.972;4.450;2023-03-04T01:47:31;102669.22;;;4.71;100.00
69836;BME280;57132;51.972;4.450;2023-03-04T01:49:58;102667.50;;;4.69;100.00
69836;BME280;57132;51.972;4.450;2023-03-04T01:52:26;102667.53;;;4.68;100.00
69836;BME280;57132;51.972;4.450;2023-03-04T01:54:52;102662.19;;;4.69;100.00
69836;BME280;57132;51.972;4.450;2023-03-04T01:57:20;102657.81;;;4.68;100.00
69836;BME280;57132;51.972;4.450;2023-03-04T01:59:46;102651.59;;;4.71;100.00
69836;BME280;57132;51.972;4.450;2023-03-04T02:02:31;102650.72;;;4.71;100.00
69836;BME280;57132;51.972;4.450;2023-03-04T02:04:57;102651.59;;;4.71;100.00
69836;BME280;57132;51.972;4.450;2023-03-04T02:07:22;102642.78;;;4.72;100.00
69836;BME280;57132;51.972;4.450;2023-03-04T02:09:48;102635.78;;;4.68;100.00
69836;BME280;57132;51.972;4.450;2023-03-04T02:12:13;102634.03;;;4.67;100.00
69836;BME280;57132;51.972;4.450;2023-03-04T02:14:38;102634.00;;;4.68;100.00
69836;BME280;57132;51.972;4.450;2023-03-04T02:17:10;102629.56;;;4.71;100.00
69836;BME280;57132;51.972;4.450;2023-03-04T02:19:43;102633.06;;;4.73;100.00
69836;BME280;57132;51.972;4.450;2023-03-04T02:22:12;102631.28;;;4.73;100.00
69836;BME280;57132;51.972;4.450;2023-03-04T02:25:09;102627.78;;;4.71;100.00
69836;BME280;57132;51.972;4.450;2023-03-04T02:27:35;102628.69;;;4.72;100.00
69836;BME280;57132;51.972;4.450;2023-03-04T02:30:01;102619.91;;;4.68;100.00
69836;BME280;57132;51.972;4.450;2023-03-04T02:32:26;102626.97;;;4.67;100.00
69836;BME280;57132;51.972;4.450;2023-03-04T02:34:51;102623.44;;;4.68;100.00
69836;BME280;57132;51.972;4.450;2023-03-04T02:37:18;102617.28;;;4.68;100.00
69836;BME280;57132;51.972;4.450;2023-03-04T02:39:45;102615.53;;;4.65;100.00
69836;BME280;57132;51.972;4.450;2023-03-04T02:42:12;102614.72;;;4.63;100.00
69836;BME280;57132;51.972;4.450;2023-03-04T02:44:42;102612.06;;;4.62;100.00
69836;BME280;57132;51.972;4.450;2023-03-04T02:47:11;102609.44;;;4.62;100.00
69836;BME280;57132;51.972;4.450;2023-03-04T02:49:39;102609.44;;;4.62;100.00
69836;BME280;57132;51.972;4.450;2023-03-04T02:52:12;102609.44;;;4.62;100.00
69836;BME280;57132;51.972;4.450;2023-03-04T02:54:38;102602.41;;;4.61;100.00
69836;BME280;57132;51.972;4.450;2023-03-04T02:57:06;102607.69;;;4.61;100.00
69836;BME280;57132;51.972;4.450;2023-03-04T02:59:32;102616.53;;;4.58;100.00
69836;BME280;57132;51.972;4.450;2023-03-04T03:01:57;102609.50;;;4.57;100.00
69836;BME280;57132;51.972;4.450;2023-03-04T03:04:24;102610.38;;;4.58;100.00
69836;BME280;57132;51.972;4.450;2023-03-04T03:06:50;102611.25;;;4.58;100.00
69836;BME280;57132;51.972;4.450;2023-03-04T03:09:16;102606.00;;;4.57;100.00
69836;BME280;57132;51.972;4.450;2023-03-04T03:11:41;102600.72;;;4.57;100.00
69836;BME280;57132;51.972;4.450;2023-03-04T03:14:06;102607.72;;;4.59;100.00
69836;BME280;57132;51.972;4.450;2023-03-04T03:16:32;102602.44;;;4.58;100.00
69836;BME280;57132;51.972;4.450;2023-03-04T03:18:57;102606.00;;;4.55;100.00
69836;BME280;57132;51.972;4.450;2023-03-04T03:21:23;102609.56;;;4.56;100.00
69836;BME280;57132;51.972;4.450;2023-03-04T03:23:48;102604.28;;;4.54;100.00
69836;BME280;57132;51.972;4.450;2023-03-04T03:26:14;102606.09;;;4.52;100.00
69836;BME280;57132;51.972;4.450;2023-03-04T03:28:40;102605.22;;;4.52;100.00
69836;BME280;57132;51.972;4.450;2023-03-04T03:31:05;102599.94;;;4.50;100.00
69836;BME280;57132;51.972;4.450;2023-03-04T03:33:30;102599.84;;;4.55;100.00
69836;BME280;57132;51.972;4.450;2023-03-04T03:35:56;102606.91;;;4.54;100.00
69836;BME280;57132;51.972;4.450;2023-03-04T03:38:21;102595.53;;;4.51;100.00
69836;BME280;57132;51.972;4.450;2023-03-04T03:40:47;102597.28;;;4.50;100.00
69836;BME280;57132;51.972;4.450;2023-03-04T03:43:12;102591.13;;;4.50;100.00
69836;BME280;57132;51.972;4.450;2023-03-04T03:45:38;102603.41;;;4.54;100.00
69836;BME280;57132;51.972;4.450;2023-03-04T03:48:03;102601.66;;;4.53;100.00
69836;BME280;57132;51.972;4.450;2023-03-04T03:50:28;102605.13;;;4.55;100.00
69836;BME280;57132;51.972;4.450;2023-03-04T03:52:54;102598.13;;;4.54;100.00
69836;BME280;57132;51.972;4.450;2023-03-04T03:55:20;102605.19;;;4.53;100.00
69836;BME280;57132;51.972;4.450;2023-03-04T03:57:46;102599.91;;;4.53;100.00
69836;BME280;57132;51.972;4.450;2023-03-04T04:00:12;102593.69;;;4.54;100.00
69836;BME280;57132;51.972;4.450;2023-03-04T04:02:38;102602.53;;;4.53;100.00
69836;BME280;57132;51.972;4.450;2023-03-04T04:05:04;102599.06;;;4.50;100.00
69836;BME280;57132;51.972;4.450;2023-03-04T04:07:30;102605.25;;;4.49;100.00
69836;BME280;57132;51.972;4.450;2023-03-04T04:09:55;102606.22;;;4.44;100.00
69836;BME280;57132;51.972;4.450;2023-03-04T04:12:20;102606.19;;;4.46;100.00
69836;BME280;57132;51.972;4.450;2023-03-04T04:14:47;102602.72;;;4.44;100.00
69836;BME280;57132;51.972;4.450;2023-03-04T04:17:12;102600.06;;;4.44;100.00
69836;BME280;57132;51.972;4.450;2023-03-04T04:19:39;102607.91;;;4.47;100.00
69836;BME280;57132;51.972;4.450;2023-03-04T04:22:05;102602.63;;;4.47;100.00
69836;BME280;57132;51.972;4.450;2023-03-04T04:24:30;102598.25;;;4.48;100.00
69836;BME280;57132;51.972;4.450;2023-03-04T04:26:56;102606.09;;;4.51;100.00
69836;BME280;57132;51.972;4.450;2023-03-04T04:29:22;102594.66;;;4.50;100.00
69836;BME280;57132;51.972;4.450;2023-03-04T04:31:47;102602.63;;;4.47;100.00
69836;BME280;57132;51.972;4.450;2023-03-04T04:34:13;102603.53;;;4.46;100.00
69836;BME280;57132;51.972;4.450;2023-03-04T04:36:38;102600.94;;;4.44;100.00
69836;BME280;57132;51.972;4.450;2023-03-04T04:39:04;102601.84;;;4.43;100.00
69836;BME280;57132;51.972;4.450;2023-03-04T04:41:33;102605.41;;;4.41;100.00
69836;BME280;57132;51.972;4.450;2023-03-04T04:44:00;102603.66;;;4.40;100.00
69836;BME280;57132;51.972;4.450;2023-03-04T04:46:27;102601.94;;;4.37;100.00
69836;BME280;57132;51.972;4.450;2023-03-04T04:48:52;102597.50;;;4.38;100.00
69836;BME280;57132;51.972;4.450;2023-03-04T04:51:17;102603.66;;;4.40;100.00
69836;BME280;57132;51.972;4.450;2023-03-04T04:53:43;102607.19;;;4.39;100.00
69836;BME280;57132;51.972;4.450;2023-03-04T04:56:14;102605.41;;;4.39;100.00
69836;BME280;57132;51.972;4.450;2023-03-04T04:58:41;102610.72;;;4.38;100.00
69836;BME280;57132;51.972;4.450;2023-03-04T05:01:06;102612.50;;;4.37;100.00
69836;BME280;57132;51.972;4.450;2023-03-04T05:03:34;102611.63;;;4.37;100.00
69836;BME280;57132;51.972;4.450;2023-03-04T05:06:00;102612.53;;;4.36;100.00
69836;BME280;57132;51.972;4.450;2023-03-04T05:08:25;102613.41;;;4.35;100.00
69836;BME280;57132;51.972;4.450;2023-03-04T05:10:51;102610.78;;;4.35;100.00
69836;BME280;57132;51.972;4.450;2023-03-04T05:13:17;102602.84;;;4.35;100.00
69836;BME280;57132;51.972;4.450;2023-03-04T05:15:44;102608.13;;;4.35;100.00
69836;BME280;57132;51.972;4.450;2023-03-04T05:18:09;102610.78;;;4.35;100.00
69836;BME280;57132;51.972;4.450;2023-03-04T05:20:35;102609.91;;;4.36;100.00
69836;BME280;57132;51.972;4.450;2023-03-04T05:23:00;102610.78;;;4.35;100.00
69836;BME280;57132;51.972;4.450;2023-03-04T05:25:25;102610.78;;;4.35;100.00
69836;BME280;57132;51.972;4.450;2023-03-04T05:27:51;102611.69;;;4.34;100.00
69836;BME280;57132;51.972;4.450;2023-03-04T05:30:16;102614.31;;;4.34;100.00
69836;BME280;57132;51.972;4.450;2023-03-04T05:32:43;102609.06;;;4.31;100.00
69836;BME280;57132;51.972;4.450;2023-03-04T05:35:08;102610.88;;;4.29;100.00
69836;BME280;57132;51.972;4.450;2023-03-04T05:37:34;102614.44;;;4.28;100.00
69836;BME280;57132;51.972;4.450;2023-03-04T05:39:59;102605.56;;;4.30;100.00
69836;BME280;57132;51.972;4.450;2023-03-04T05:42:24;102601.19;;;4.29;100.00
69836;BME280;57132;51.972;4.450;2023-03-04T05:44:50;102609.13;;;4.29;100.00
69836;BME280;57132;51.972;4.450;2023-03-04T05:47:15;102609.06;;;4.31;100.00
69836;BME280;57132;51.972;4.450;2023-03-04T05:49:40;102601.09;;;4.34;100.00
69836;BME280;57132;51.972;4.450;2023-03-04T05:52:06;102601.97;;;4.36;100.00
69836;BME280;57132;51.972;4.450;2023-03-04T05:54:32;102601.06;;;4.37;100.00
69836;BME280;57132;51.972;4.450;2023-03-04T05:56:57;102597.50;;;4.38;100.00
69836;BME280;57132;51.972;4.450;2023-03-04T05:59:23;102604.53;;;4.39;100.00
69836;BME280;57132;51.972;4.450;2023-03-04T06:01:48;102597.47;;;4.41;100.00
69836;BME280;57132;51.972;4.450;2023-03-04T06:04:15;102592.19;;;4.41;100.00
69836;BME280;57132;51.972;4.450;2023-03-04T06:06:40;102591.25;;;4.43;100.00
69836;BME280;57132;51.972;4.450;2023-03-04T06:09:06;102594.78;;;4.44;100.00
69836;BME280;57132;51.972;4.450;2023-03-04T06:11:31;102596.47;;;4.47;100.00
69836;BME280;57132;51.972;4.450;2023-03-04T06:13:57;102597.34;;;4.47;100.00
69836;BME280;57132;51.972;4.450;2023-03-04T06:16:22;102595.59;;;4.46;100.00
69836;BME280;57132;51.972;4.450;2023-03-04T06:18:47;102597.41;;;4.44;100.00
69836;BME280;57132;51.972;4.450;2023-03-04T06:21:15;102599.16;;;4.45;100.00
69836;BME280;57132;51.972;4.450;2023-03-04T06:23:42;102600.91;;;4.46;100.00
69836;BME280;57132;51.972;4.450;2023-03-04T06:26:09;102599.16;;;4.45;100.00
69836;BME280;57132;51.972;4.450;2023-03-04T06:28:39;102611.50;;;4.44;100.00
69836;BME280;57132;51.972;4.450;2023-03-04T06:31:05;102604.53;;;4.40;100.00
69836;BME280;57132;51.972;4.450;2023-03-04T06:33:33;102605.44;;;4.38;100.00
69836;BME280;57132;51.972;4.450;2023-03-04T06:35:58;102611.63;;;4.37;100.00
69836;BME280;57132;51.972;4.450;2023-03-04T06:38:25;102614.28;;;4.35;100.00
69836;BME280;57132;51.972;4.450;2023-03-04T06:40:51;102610.78;;;4.35;100.00
69836;BME280;57132;51.972;4.450;2023-03-04T06:43:17;102613.50;;;4.32;100.00
69836;BME280;57132;51.972;4.450;2023-03-04T06:45:42;102614.38;;;4.31;100.00
69836;BME280;57132;51.972;4.450;2023-03-04T06:48:07;102609.13;;;4.29;100.00
69836;BME280;57132;51.972;4.450;2023-03-04T06:50:33;102624.06;;;4.32;100.00
69836;BME280;57132;51.972;4.450;2023-03-04T06:52:58;102634.59;;;4.33;100.00
69836;BME280;57132;51.972;4.450;2023-03-04T06:55:24;102623.16;;;4.31;100.00
69836;BME280;57132;51.972;4.450;2023-03-04T06:57:49;102623.16;;;4.31;100.00
69836;BME280;57132;51.972;4.450;2023-03-04T07:00:15;102629.34;;;4.32;100.00
69836;BME280;57132;51.972;4.450;2023-03-04T07:02:41;102629.34;;;4.32;100.00
69836;BME280;57132;51.972;4.450;2023-03-04T07:05:06;102634.56;;;4.35;100.00
69836;BME280;57132;51.972;4.450;2023-03-04T07:07:32;102632.81;;;4.34;100.00
69836;BME280;57132;51.972;4.450;2023-03-04T07:09:58;102631.88;;;4.38;100.00
69836;BME280;57132;51.972;4.450;2023-03-04T07:12:23;102630.97;;;4.40;100.00
69836;BME280;57132;51.972;4.450;2023-03-04T07:14:48;102636.13;;;4.48;100.00
69836;BME280;57132;51.972;4.450;2023-03-04T07:17:14;102626.28;;;4.56;100.00
69836;BME280;57132;51.972;4.450;2023-03-04T07:19:39;102633.22;;;4.62;100.00
69836;BME280;57132;51.972;4.450;2023-03-04T07:22:06;102636.66;;;4.67;100.00
69836;BME280;57132;51.972;4.450;2023-03-04T07:24:31;102633.97;;;4.70;100.00
69836;BME280;57132;51.972;4.450;2023-03-04T07:26:56;102638.34;;;4.73;100.00
69836;BME280;57132;51.972;4.450;2023-03-04T07:29:22;102636.56;;;4.73;100.00
69836;BME280;57132;51.972;4.450;2023-03-04T07:31:48;102645.38;;;4.75;100.00
69836;BME280;57132;51.972;4.450;2023-03-04T07:34:14;102645.38;;;4.75;100.00
69836;BME280;57132;51.972;4.450;2023-03-04T07:36:40;102648.00;;;4.75;100.00
69836;BME280;57132;51.972;4.450;2023-03-04T07:39:06;102647.94;;;4.78;100.00
69836;BME280;57132;51.972;4.450;2023-03-04T07:41:32;102656.69;;;4.82;100.00
69836;BME280;57132;51.972;4.450;2023-03-04T07:44:00;102660.13;;;4.87;100.00
69836;BME280;57132;51.972;4.450;2023-03-04T07:46:26;102661.72;;;4.97;100.00
69836;BME280;57132;51.972;4.450;2023-03-04T07:48:51;102664.84;;;5.17;100.00
69836;BME280;57132;51.972;4.450;2023-03-04T07:51:19;102666.81;;;5.53;100.00
69836;BME280;57132;51.972;4.450;2023-03-04T07:53:48;102676.88;;;5.79;100.00
69836;BME280;57132;51.972;4.450;2023-03-04T07:56:17;102677.59;;;5.87;100.00
69836;BME280;57132;51.972;4.450;2023-03-04T07:58:43;102685.72;;;5.78;100.00
69836;BME280;57132;51.972;4.450;2023-03-04T08:01:15;102669.97;;;5.72;100.00
69836;BME280;57132;51.972;4.450;2023-03-04T08:03:41;102679.81;;;5.65;100.00
69836;BME280;57132;51.972;4.450;2023-03-04T08:06:09;102676.34;;;5.61;100.00
69836;BME280;57132;51.972;4.450;2023-03-04T08:08:36;102677.16;;;5.65;100.00
69836;BME280;57132;51.972;4.450;2023-03-04T08:11:06;102672.25;;;5.88;100.00
69836;BME280;57132;51.972;4.450;2023-03-04T08:13:32;102671.41;;;6.27;100.00
69836;BME280;57132;51.972;4.450;2023-03-04T08:15:58;102670.78;;;6.53;100.00
69836;BME280;57132;51.972;4.450;2023-03-04T08:18:23;102664.47;;;6.58;100.00
69836;BME280;57132;51.972;4.450;2023-03-04T08:20:49;102669.53;;;6.68;100.00
69836;BME280;57132;51.972;4.450;2023-03-04T08:23:14;102669.03;;;6.87;100.00
69836;BME280;57132;51.972;4.450;2023-03-04T08:25:40;102665.13;;;7.01;100.00
69836;BME280;57132;51.972;4.450;2023-03-04T08:28:07;102671.41;;;6.98;100.00
69836;BME280;57132;51.972;4.450;2023-03-04T08:30:33;102666.34;;;6.89;100.00
69836;BME280;57132;51.972;4.450;2023-03-04T08:33:00;102668.78;;;6.97;100.00
69836;BME280;57132;51.972;4.450;2023-03-04T08:35:26;102659.00;;;6.99;100.00
69836;BME280;57132;51.972;4.450;2023-03-04T08:37:51;102672.72;;;7.14;100.00
69836;BME280;57132;51.972;4.450;2023-03-04T08:40:17;102674.72;;;7.06;100.00
69836;BME280;57132;51.972;4.450;2023-03-04T08:42:43;102669.81;;;6.91;100.00
69836;BME280;57132;51.972;4.450;2023-03-04T08:45:08;102669.22;;;6.80;100.00
69836;BME280;57132;51.972;4.450;2023-03-04T08:47:34;102671.25;;;6.70;100.00
69836;BME280;57132;51.972;4.450;2023-03-04T08:49:59;102670.28;;;6.73;100.00
69836;BME280;57132;51.972;4.450;2023-03-04T08:52:25;102673.31;;;6.22;100.00
69836;BME280;57132;51.972;4.450;2023-03-04T08:54:50;102670.66;;;5.80;100.00
69836;BME280;57132;51.972;4.450;2023-03-04T08:57:15;102672.63;;;5.72;100.00
69836;BME280;57132;51.972;4.450;2023-03-04T08:59:41;102665.44;;;5.77;100.00
69836;BME280;57132;51.972;4.450;2023-03-04T09:02:06;102666.13;;;5.86;100.00
69836;BME280;57132;51.972;4.450;2023-03-04T09:04:32;102666.69;;;6.01;100.00
69836;BME280;57132;51.972;4.450;2023-03-04T09:06:57;102660.88;;;6.24;100.00
69836;BME280;57132;51.972;4.450;2023-03-04T09:09:22;102666.56;;;6.44;100.00
69836;BME280;57132;51.972;4.450;2023-03-04T09:11:48;102663.91;;;6.81;100.00
69836;BME280;57132;51.972;4.450;2023-03-04T09:14:13;102659.59;;;7.10;100.00
69836;BME280;57132;51.972;4.450;2023-03-04T09:16:39;102661.13;;;7.19;100.00
69836;BME280;57132;51.972;4.450;2023-03-04T09:19:07;102658.81;;;7.37;100.00
69836;BME280;57132;51.972;4.450;2023-03-04T09:21:32;102659.31;;;7.81;100.00
69836;BME280;57132;51.972;4.450;2023-03-04T09:23:58;102653.06;;;8.12;100.00
69836;BME280;57132;51.972;4.450;2023-03-04T09:26:26;102646.47;;;8.52;100.00
69836;BME280;57132;51.972;4.450;2023-03-04T09:28:56;102654.72;;;8.44;100.00
69836;BME280;57132;51.972;4.450;2023-03-04T09:31:22;102658.38;;;7.84;100.00
69836;BME280;57132;51.972;4.450;2023-03-04T09:33:49;102655.00;;;7.15;100.00
69836;BME280;57132;51.972;4.450;2023-03-04T09:36:15;102654.47;;;6.68;100.00
69836;BME280;57132;51.972;4.450;2023-03-04T09:38:41;102660.28;;;6.48;100.00
69836;BME280;57132;51.972;4.450;2023-03-04T09:41:09;102650.78;;;6.39;100.00
69836;BME280;57132;51.972;4.450;2023-03-04T09:43:37;102654.16;;;6.46;100.00
69836;BME280;57132;51.972;4.450;2023-03-04T09:46:10;102653.78;;;6.61;100.00
69836;BME280;57132;51.972;4.450;2023-03-04T09:48:46;102652.00;;;7.29;100.00
69836;BME280;57132;51.972;4.450;2023-03-04T09:51:21;102651.53;;;9.59;100.00
69836;BME280;57132;51.972;4.450;2023-03-04T09:56:40;102647.72;;;13.53;77.93
69836;BME280;57132;51.972;4.450;2023-03-04T09:59:14;102647.94;;;11.72;82.34
69836;BME280;57132;51.972;4.450;2023-03-04T10:04:17;102643.63;;;10.69;89.99
69836;BME280;57132;51.972;4.450;2023-03-04T10:06:46;102638.59;;;9.49;96.21
69836;BME280;57132;51.972;4.450;2023-03-04T10:09:25;102642.75;;;8.29;100.00
69836;BME280;57132;51.972;4.450;2023-03-04T10:12:02;102649.19;;;7.64;100.00
69836;BME280;57132;51.972;4.450;2023-03-04T10:14:36;102648.56;;;7.24;100.00
69836;BME280;57132;51.972;4.450;2023-03-04T10:17:51;102641.34;;;6.96;100.00
69836;BME280;57132;51.972;4.450;2023-03-04T10:22:38;102653.56;;;6.69;100.00
69836;BME280;57132;51.972;4.450;2023-03-04T10:25:27;102658.16;;;6.62;100.00
69836;BME280;57132;51.972;4.450;2023-03-04T10:27:56;102654.53;;;6.67;100.00
69836;BME280;57132;51.972;4.450;2023-03-04T10:33:11;102658.34;;;6.90;100.00
69836;BME280;57132;51.972;4.450;2023-03-04T10:35:37;102654.81;;;6.90;100.00
69836;BME280;57132;51.972;4.450;2023-03-04T10:38:03;102655.28;;;7.04;100.00
69836;BME280;57132;51.972;4.450;2023-03-04T10:40:36;102648.34;;;7.33;100.00
69836;BME280;57132;51.972;4.450;2023-03-04T10:43:02;102653.75;;;7.59;100.00
69836;BME280;57132;51.972;4.450;2023-03-04T10:45:32;102651.31;;;8.39;100.00
69836;BME280;57132;51.972;4.450;2023-03-04T10:48:01;102639.44;;;9.51;100.00
69836;BME280;57132;51.972;4.450;2023-03-04T10:50:28;102636.72;;;10.64;100.00
69836;BME280;57132;51.972;4.450;2023-03-04T10:52:54;102638.47;;;12.03;95.75
69836;BME280;57132;51.972;4.450;2023-03-04T10:55:27;102640.94;;;12.61;92.04
69836;BME280;57132;51.972;4.450;2023-03-04T10:57:55;102632.44;;;13.56;83.39
69836;BME280;57132;51.972;4.450;2023-03-04T11:03:21;102643.66;;;12.42;81.31
69836;BME280;57132;51.972;4.450;2023-03-04T11:05:48;102627.56;;;13.46;77.86
69836;BME280;57132;51.972;4.450;2023-03-04T11:08:19;102625.13;;;13.42;76.10
69836;BME280;57132;51.972;4.450;2023-03-04T11:10:45;102620.97;;;13.36;76.98
69836;BME280;57132;51.972;4.450;2023-03-04T11:13:21;102627.31;;;12.48;78.37
69836;BME280;57132;51.972;4.450;2023-03-04T11:18:27;102621.09;;;10.95;88.48
69836;BME280;57132;51.972;4.450;2023-03-04T11:20:55;102618.69;;;11.10;87.19
69836;BME280;57132;51.972;4.450;2023-03-04T11:26:18;102617.81;;;8.60;100.00
69836;BME280;57132;51.972;4.450;2023-03-04T11:29:01;102610.75;;;8.04;100.00
69836;BME280;57132;51.972;4.450;2023-03-04T11:31:31;102613.50;;;8.01;100.00
69836;BME280;57132;51.972;4.450;2023-03-04T11:34:28;102610.44;;;7.85;100.00
69836;BME280;57132;51.972;4.450;2023-03-04T11:39:46;102605.81;;;9.92;100.00
69836;BME280;57132;51.972;4.450;2023-03-04T11:42:22;102608.34;;;10.61;98.30
69836;BME280;57132;51.972;4.450;2023-03-04T11:44:50;102603.34;;;10.53;95.81
69836;BME280;57132;51.972;4.450;2023-03-04T11:50:14;102590.72;;;9.69;98.39
69836;BME280;57132;51.972;4.450;2023-03-04T11:55:33;102595.81;;;9.05;98.51
69836;BME280;57132;51.972;4.450;2023-03-04T12:01:04;102581.13;;;8.93;100.00
69836;BME280;57132;51.972;4.450;2023-03-04T12:20:26;102573.25;;;7.26;100.00
69836;BME280;57132;51.972;4.450;2023-03-04T12:44:26;102553.13;;;7.77;100.00
69836;BME280;57132;51.972;4.450;2023-03-04T12:47:07;102538.50;;;7.90;100.00
69836;BME280;57132;51.972;4.450;2023-03-04T12:52:47;102547.03;;;7.45;100.00
69836;BME280;57132;51.972;4.450;2023-03-04T12:55:18;102534.31;;;6.96;100.00
69836;BME280;57132;51.972;4.450;2023-03-04T12:57:47;102540.38;;;6.68;100.00
69836;BME280;57132;51.972;4.450;2023-03-04T13:00:33;102537.03;;;6.93;100.00
69836;BME280;57132;51.972;4.450;2023-03-04T13:05:55;102538.19;;;7.73;100.00
69836;BME280;57132;51.972;4.450;2023-03-04T13:08:50;102525.84;;;7.98;100.00
69836;BME280;57132;51.972;4.450;2023-03-04T13:14:26;102530.06;;;7.77;100.00
69836;BME280;57132;51.972;4.450;2023-03-04T13:16:53;102524.56;;;7.55;100.00
69836;BME280;57132;51.972;4.450;2023-03-04T13:24:55;102510.38;;;7.56;100.00
69836;BME280;57132;51.972;4.450;2023-03-04T13:27:47;102510.19;;;7.89;100.00
69836;BME280;57132;51.972;4.450;2023-03-04T13:44:02;102493.94;;;8.75;100.00
69836;BME280;57132;51.972;4.450;2023-03-04T13:46:41;102493.19;;;8.46;100.00
69836;BME280;57132;51.972;4.450;2023-03-04T13:49:16;102493.13;;;7.96;100.00
69836;BME280;57132;51.972;4.450;2023-03-04T13:51:44;102505.91;;;7.57;100.00
69836;BME280;57132;51.972;4.450;2023-03-04T13:54:30;102500.28;;;7.08;100.00
69836;BME280;57132;51.972;4.450;2023-03-04T14:04:30;102497.09;;;6.97;100.00
69836;BME280;57132;51.972;4.450;2023-03-04T14:06:58;102497.66;;;7.38;100.00
69836;BME280;57132;51.972;4.450;2023-03-04T14:09:30;102496.69;;;7.69;100.00
69836;BME280;57132;51.972;4.450;2023-03-04T14:12:01;102486.66;;;7.77;100.00
69836;BME280;57132;51.972;4.450;2023-03-04T14:14:58;102486.63;;;7.78;100.00
69836;BME280;57132;51.972;4.450;2023-03-04T14:17:28;102474.34;;;8.01;100.00
69836;BME280;57132;51.972;4.450;2023-03-04T14:19:55;102482.00;;;7.83;100.00
69836;BME280;57132;51.972;4.450;2023-03-04T14:22:30;102475.59;;;7.62;100.00
69836;BME280;57132;51.972;4.450;2023-03-04T14:25:06;102478.81;;;7.46;100.00
69836;BME280;57132;51.972;4.450;2023-03-04T14:27:35;102466.41;;;7.17;100.00
69836;BME280;57132;51.972;4.450;2023-03-04T14:30:05;102472.31;;;6.97;100.00
69836;BME280;57132;51.972;4.450;2023-03-04T14:32:31;102478.97;;;6.82;100.00
69836;BME280;57132;51.972;4.450;2023-03-04T14:35:01;102470.38;;;6.74;100.00
69836;BME280;57132;51.972;4.450;2023-03-04T14:37:41;102469.31;;;6.79;100.00